createdAt,value
2023-01-08T00:02:11.750Z,86.82
2023-01-08T00:04:38.678Z,86.64
2023-01-08T00:07:05.651Z,86.44
2023-01-08T00:09:32.612Z,86.28
2023-01-08T00:11:59.595Z,85.98
2023-01-08T00:14:26.552Z,85.80
2023-01-08T00:16:53.494Z,85.42
2023-01-08T00:19:20.464Z,86.11
2023-01-08T00:21:47.417Z,86.15
2023-01-08T00:24:14.414Z,85.82
2023-01-08T00:26:41.363Z,85.80
2023-01-08T00:29:08.301Z,85.68
2023-01-08T00:31:35.276Z,85.65
2023-01-08T00:34:02.228Z,85.06
2023-01-08T00:36:29.233Z,85.41
2023-01-08T00:38:56.167Z,85.99
2023-01-08T00:41:23.261Z,85.42
2023-01-08T00:43:50.144Z,86.15
2023-01-08T00:46:17.420Z,86.18
2023-01-08T00:48:44.464Z,85.66
2023-01-08T00:51:11.408Z,85.68
2023-01-08T00:53:38.478Z,86.09
2023-01-08T00:56:07.095Z,85.51
2023-01-08T00:58:34.305Z,85.93
2023-01-08T01:01:01.665Z,85.75
2023-01-08T01:03:28.648Z,85.57
2023-01-08T01:06:02.180Z,85.36
2023-01-08T01:08:29.475Z,86.09
2023-01-08T01:10:56.389Z,85.75
2023-01-08T01:13:23.463Z,86.01
2023-01-08T01:15:59.917Z,86.21
2023-01-08T01:18:27.270Z,85.97
2023-01-08T01:20:54.216Z,86.03
2023-01-08T01:23:21.605Z,86.05
2023-01-08T01:25:48.688Z,86.16
2023-01-08T01:28:16.436Z,85.99
2023-01-08T01:30:43.504Z,86.39
2023-01-08T01:33:10.478Z,86.30
2023-01-08T01:35:37.388Z,86.10
2023-01-08T01:38:04.391Z,86.58
2023-01-08T01:40:31.424Z,86.56
2023-01-08T01:42:58.273Z,86.44
2023-01-08T01:45:27.956Z,86.68
2023-01-08T01:47:59.934Z,86.40
2023-01-08T01:50:29.583Z,86.54
2023-01-08T01:53:09.490Z,86.46
2023-01-08T01:55:38.302Z,86.38
2023-01-08T01:58:08.747Z,86.79
2023-01-08T02:00:36.164Z,86.54
2023-01-08T02:03:03.930Z,87.18
2023-01-08T02:05:41.705Z,86.95
2023-01-08T02:08:12.523Z,86.93
2023-01-08T02:11:11.316Z,86.71
2023-01-08T02:13:43.520Z,87.25
2023-01-08T02:16:13.664Z,87.22
2023-01-08T02:18:49.299Z,86.53
2023-01-08T02:21:28.659Z,87.39
2023-01-08T02:24:15.814Z,87.62
2023-01-08T02:26:44.195Z,87.43
2023-01-08T02:29:14.545Z,87.26
2023-01-08T02:31:42.604Z,87.40
2023-01-08T02:34:10.537Z,87.63
2023-01-08T02:36:40.222Z,87.06
2023-01-08T02:39:07.148Z,87.14
2023-01-08T02:41:53.219Z,87.56
2023-01-08T02:44:22.759Z,87.02
2023-01-08T02:46:52.525Z,87.38
2023-01-08T02:49:21.102Z,86.63
2023-01-08T02:51:54.467Z,87.00
2023-01-08T02:54:26.464Z,87.41
2023-01-08T02:57:00.224Z,87.71
2023-01-08T02:59:28.197Z,87.27
2023-01-08T03:01:55.907Z,87.43
2023-01-08T03:04:24.355Z,86.96
2023-01-08T03:06:51.343Z,87.02
2023-01-08T03:09:18.585Z,86.97
2023-01-08T03:11:50.645Z,87.29
2023-01-08T03:14:20.555Z,87.50
2023-01-08T03:17:07.922Z,87.15
2023-01-08T03:19:43.072Z,86.99
2023-01-08T03:22:12.217Z,87.06
2023-01-08T03:24:40.301Z,86.81
2023-01-08T03:27:09.877Z,86.73
2023-01-08T03:29:38.467Z,86.48
2023-01-08T03:32:07.111Z,86.46
2023-01-08T03:34:36.593Z,86.37
2023-01-08T03:37:05.601Z,86.75
2023-01-08T03:39:38.378Z,86.53
2023-01-08T03:42:08.145Z,86.67
2023-01-08T03:44:35.064Z,86.74
2023-01-08T03:47:02.978Z,87.24
2023-01-08T03:49:30.799Z,86.86
2023-01-08T03:51:57.776Z,86.22
2023-01-08T03:54:25.931Z,86.65
2023-01-08T03:56:53.094Z,87.14
2023-01-08T03:59:20.002Z,87.12
2023-01-08T04:01:47.188Z,87.14
2023-01-08T04:04:14.401Z,87.20
2023-01-08T04:06:41.387Z,87.08
2023-01-08T04:09:08.281Z,87.51
2023-01-08T04:11:35.172Z,87.49
2023-01-08T04:14:02.165Z,87.50
2023-01-08T04:16:29.170Z,87.17
2023-01-08T04:18:56.232Z,87.33
2023-01-08T04:21:23.120Z,87.91
2023-01-08T04:23:49.995Z,87.38
2023-01-08T04:26:17.006Z,87.43
2023-01-08T04:28:43.887Z,87.11
2023-01-08T04:31:11.088Z,86.91
2023-01-08T04:33:38.150Z,87.41
2023-01-08T04:36:05.519Z,87.34
2023-01-08T04:38:32.504Z,86.78
2023-01-08T04:41:00.412Z,87.37
2023-01-08T04:43:27.697Z,86.70
2023-01-08T04:45:58.539Z,86.99
2023-01-08T04:48:25.555Z,87.70
2023-01-08T04:50:52.742Z,86.88
2023-01-08T04:53:20.028Z,86.83
2023-01-08T04:55:46.964Z,87.07
2023-01-08T04:58:13.853Z,87.01
2023-01-08T05:00:40.757Z,87.06
2023-01-08T05:03:07.787Z,86.62
2023-01-08T05:05:35.349Z,87.03
2023-01-08T05:08:02.218Z,86.89
2023-01-08T05:10:29.214Z,87.05
2023-01-08T05:12:59.924Z,87.36
2023-01-08T05:15:27.043Z,87.69
2023-01-08T05:18:06.517Z,87.78
2023-01-08T05:20:33.484Z,87.24
2023-01-08T05:23:00.532Z,87.49
2023-01-08T05:25:27.543Z,86.86
2023-01-08T05:27:54.692Z,87.49
2023-01-08T05:30:21.664Z,87.62
2023-01-08T05:32:48.590Z,87.13
2023-01-08T05:35:15.525Z,87.59
2023-01-08T05:37:42.570Z,87.03
2023-01-08T05:40:09.730Z,87.11
2023-01-08T05:42:36.882Z,87.77
2023-01-08T05:45:04.525Z,87.45
2023-01-08T05:47:32.092Z,87.36
2023-01-08T05:49:59.611Z,87.51
2023-01-08T05:52:26.891Z,87.34
2023-01-08T05:54:53.805Z,87.13
2023-01-08T05:57:20.770Z,87.27
2023-01-08T05:59:47.821Z,87.32
2023-01-08T06:02:14.851Z,86.85
2023-01-08T06:04:41.911Z,87.08
2023-01-08T06:07:08.906Z,87.27
2023-01-08T06:09:35.921Z,87.24
2023-01-08T06:12:02.984Z,86.51
2023-01-08T06:14:30.007Z,86.78
2023-01-08T06:16:56.976Z,86.44
2023-01-08T06:19:24.212Z,86.02
2023-01-08T06:21:51.109Z,86.93
2023-01-08T06:24:18.144Z,86.75
2023-01-08T06:26:45.133Z,87.09
2023-01-08T06:29:12.095Z,85.85
2023-01-08T06:31:39.035Z,86.74
2023-01-08T06:34:05.962Z,85.88
2023-01-08T06:36:32.850Z,85.81
2023-01-08T06:38:59.795Z,85.91
2023-01-08T06:41:26.671Z,85.36
2023-01-08T06:43:53.592Z,85.66
2023-01-08T06:46:20.563Z,85.82
2023-01-08T06:48:47.476Z,86.16
2023-01-08T06:51:14.441Z,86.38
2023-01-08T06:53:41.705Z,86.09
2023-01-08T06:56:09.682Z,85.84
2023-01-08T06:58:38.133Z,85.51
2023-01-08T07:01:05.395Z,85.14
2023-01-08T07:03:32.483Z,85.52
2023-01-08T07:06:02.309Z,85.27
2023-01-08T07:08:32.100Z,85.37
2023-01-08T07:11:04.628Z,84.67
2023-01-08T07:13:31.775Z,84.80
2023-01-08T07:15:59.175Z,85.23
2023-01-08T07:18:26.203Z,84.37
2023-01-08T07:20:53.164Z,85.19
2023-01-08T07:23:20.106Z,84.74
2023-01-08T07:25:52.448Z,85.26
2023-01-08T07:28:19.670Z,84.93
2023-01-08T07:30:46.712Z,84.18
2023-01-08T07:33:13.642Z,84.72
2023-01-08T07:35:40.648Z,83.49
2023-01-08T07:38:07.758Z,83.71
2023-01-08T07:40:36.467Z,84.40
2023-01-08T07:43:04.937Z,84.12
2023-01-08T07:45:33.755Z,83.63
2023-01-08T07:48:00.827Z,83.55
2023-01-08T07:50:28.177Z,82.95
2023-01-08T07:52:59.633Z,83.26
2023-01-08T07:55:27.514Z,82.76
2023-01-08T07:57:54.537Z,83.31
2023-01-08T08:00:22.310Z,83.61
2023-01-08T08:02:52.639Z,83.29
2023-01-08T08:05:19.840Z,83.97
2023-01-08T08:07:46.878Z,83.81
2023-01-08T08:10:17.034Z,84.00
2023-01-08T08:12:44.987Z,83.85
2023-01-08T08:15:11.930Z,83.88
2023-01-08T08:17:39.028Z,83.73
2023-01-08T08:20:06.304Z,83.95
2023-01-08T08:22:33.343Z,83.73
2023-01-08T08:25:00.356Z,84.32
2023-01-08T08:27:27.298Z,83.75
2023-01-08T08:29:54.337Z,84.16
2023-01-08T08:32:21.336Z,83.61
2023-01-08T08:34:50.807Z,84.08
2023-01-08T08:37:17.885Z,83.80
2023-01-08T08:39:44.763Z,83.87
2023-01-08T08:42:11.769Z,83.23
2023-01-08T08:44:39.961Z,83.51
2023-01-08T08:47:09.365Z,83.69
2023-01-08T08:49:36.744Z,83.63
2023-01-08T08:52:04.279Z,83.74
2023-01-08T08:54:31.257Z,84.43
2023-01-08T08:56:58.277Z,84.22
2023-01-08T08:59:25.280Z,84.60
2023-01-08T09:01:52.347Z,83.83
2023-01-08T09:04:19.372Z,83.56
2023-01-08T09:06:46.466Z,84.18
2023-01-08T09:09:15.158Z,84.39
2023-01-08T09:11:42.097Z,83.90
2023-01-08T09:14:10.128Z,83.44
2023-01-08T09:16:37.424Z,83.17
2023-01-08T09:19:06.755Z,83.29
2023-01-08T09:21:34.559Z,82.88
2023-01-08T09:24:01.444Z,82.99
2023-01-08T09:26:30.304Z,81.99
2023-01-08T09:28:58.400Z,81.70
2023-01-08T09:31:26.060Z,83.24
2023-01-08T09:33:53.141Z,81.60
2023-01-08T09:36:20.094Z,82.33
2023-01-08T09:38:47.098Z,83.80
2023-01-08T09:41:24.522Z,83.49
2023-01-08T09:43:53.441Z,83.03
2023-01-08T09:46:22.945Z,83.30
2023-01-08T09:48:50.556Z,82.13
2023-01-08T09:51:19.213Z,82.18
2023-01-08T09:53:46.759Z,82.04
2023-01-08T09:56:16.591Z,82.84
2023-01-08T09:58:45.165Z,83.79
2023-01-08T10:01:15.927Z,83.66
2023-01-08T10:03:44.526Z,83.65
2023-01-08T10:06:16.501Z,84.18
2023-01-08T10:11:16.597Z,83.58
2023-01-08T10:13:46.922Z,84.56
2023-01-08T10:16:20.330Z,84.59
2023-01-08T10:18:48.678Z,83.40
2023-01-08T10:21:15.969Z,83.26
2023-01-08T10:23:52.175Z,83.21
2023-01-08T10:26:30.529Z,83.85
2023-01-08T10:29:10.469Z,82.71
2023-01-08T10:31:46.448Z,83.42
2023-01-08T10:40:03.153Z,83.72
2023-01-08T10:42:34.941Z,82.75
2023-01-08T10:45:11.803Z,83.16
2023-01-08T10:47:42.194Z,83.87
2023-01-08T10:53:01.701Z,83.00
2023-01-08T10:55:41.555Z,82.62
2023-01-08T10:58:11.194Z,81.96
2023-01-08T11:00:38.591Z,81.51
2023-01-08T11:03:19.150Z,82.55
2023-01-08T11:08:27.540Z,81.50
2023-01-08T11:10:59.972Z,83.04
2023-01-08T11:13:28.364Z,82.90
2023-01-08T11:16:07.031Z,82.26
2023-01-08T11:18:45.873Z,83.69
2023-01-08T11:21:21.482Z,82.47
2023-01-08T11:24:00.599Z,82.39
2023-01-08T11:26:30.481Z,83.05
2023-01-08T11:29:00.036Z,82.39
2023-01-08T11:34:50.808Z,82.63
2023-01-08T11:37:41.444Z,81.48
2023-01-08T11:43:26.699Z,82.15
2023-01-08T11:46:13.178Z,82.62
2023-01-08T11:48:59.093Z,82.51
2023-01-08T11:51:41.594Z,83.22
2023-01-08T11:54:27.530Z,82.90
2023-01-08T11:56:58.859Z,82.41
2023-01-08T11:59:33.958Z,83.20
2023-01-08T12:02:16.873Z,83.06
2023-01-08T12:05:03.047Z,82.80
2023-01-08T12:07:33.346Z,83.93
2023-01-08T12:10:00.390Z,83.66
2023-01-08T12:12:36.196Z,83.38
2023-01-08T12:15:22.614Z,83.11
2023-01-08T12:17:53.352Z,83.36
2023-01-08T12:20:28.784Z,82.99
2023-01-08T12:23:02.667Z,83.52
2023-01-08T12:25:33.973Z,83.10
2023-01-08T12:28:07.696Z,84.00
2023-01-08T12:30:41.080Z,83.82
2023-01-08T12:33:35.198Z,83.57
2023-01-08T12:36:04.401Z,84.12
2023-01-08T12:38:34.306Z,83.82
2023-01-08T12:41:10.073Z,82.68
2023-01-08T12:43:57.345Z,83.78
2023-01-08T12:46:28.603Z,83.96
2023-01-08T12:48:56.853Z,83.17
2023-01-08T12:51:31.906Z,83.52
2023-01-08T12:54:02.329Z,83.27
2023-01-08T12:56:39.599Z,84.03
2023-01-08T12:59:35.077Z,83.43
2023-01-08T13:02:11.107Z,84.34
2023-01-08T13:04:48.524Z,83.57
2023-01-08T13:07:20.883Z,84.61
2023-01-08T13:09:55.582Z,83.53
2023-01-08T13:12:27.730Z,83.60
2023-01-08T13:14:55.189Z,83.05
2023-01-08T13:17:22.725Z,84.44
2023-01-08T13:19:54.000Z,84.42
2023-01-08T13:22:37.268Z,84.58
2023-01-08T13:25:26.817Z,83.37
2023-01-08T13:27:54.632Z,83.78
2023-01-08T13:30:35.949Z,83.96
2023-01-08T13:33:04.315Z,84.55
2023-01-08T13:35:38.521Z,84.04
2023-01-08T13:38:10.295Z,83.82
2023-01-08T13:40:40.286Z,84.91
2023-01-08T13:43:13.286Z,85.71
2023-01-08T13:45:40.980Z,84.97
2023-01-08T13:48:30.911Z,86.49
2023-01-08T13:50:58.716Z,86.43
2023-01-08T13:53:26.769Z,86.97
2023-01-08T13:55:54.346Z,87.02
2023-01-08T13:58:26.944Z,87.22
2023-01-08T14:00:55.925Z,86.24
2023-01-08T14:03:35.808Z,86.46
2023-01-08T14:06:29.775Z,87.16
2023-01-08T14:09:04.557Z,86.81
2023-01-08T14:11:41.163Z,87.32
2023-01-08T14:14:13.335Z,86.15
2023-01-08T14:16:41.282Z,86.26
2023-01-08T14:19:10.898Z,86.33
2023-01-08T14:21:38.660Z,86.73
2023-01-08T14:24:06.643Z,87.45
2023-01-08T14:26:39.041Z,87.45
2023-01-08T14:29:18.477Z,86.62
2023-01-08T14:31:49.612Z,86.98
2023-01-08T14:34:24.983Z,86.94
2023-01-08T14:36:53.102Z,88.03
2023-01-08T14:42:36.009Z,87.33
2023-01-08T14:45:17.816Z,87.36
2023-01-08T14:47:56.115Z,86.88
2023-01-08T14:50:25.743Z,88.16
2023-01-08T14:53:14.138Z,87.31
2023-01-08T14:55:46.398Z,87.17
2023-01-08T14:58:18.750Z,87.20
2023-01-08T15:00:50.247Z,86.78
2023-01-08T15:03:55.827Z,87.14
2023-01-08T15:06:27.038Z,87.91
2023-01-08T15:11:58.779Z,88.14
2023-01-08T15:14:28.649Z,88.08
2023-01-08T15:16:57.450Z,86.93
2023-01-08T15:22:15.608Z,87.26
2023-01-08T15:24:44.995Z,86.96
2023-01-08T15:27:22.898Z,86.56
2023-01-08T15:29:56.220Z,87.11
2023-01-08T15:32:28.799Z,86.26
2023-01-08T15:34:56.505Z,86.16
2023-01-08T15:37:26.563Z,86.74
2023-01-08T15:39:53.926Z,87.02
2023-01-08T15:48:25.498Z,85.89
2023-01-08T15:50:54.854Z,85.38
2023-01-08T15:53:25.613Z,86.50
2023-01-08T15:58:38.280Z,86.60
2023-01-08T16:03:47.183Z,86.81
2023-01-08T16:11:40.400Z,87.06
2023-01-08T16:14:08.153Z,87.26
2023-01-08T16:16:35.766Z,86.75
2023-01-08T16:24:35.245Z,88.31
2023-01-08T16:27:03.064Z,87.25
2023-01-08T16:29:34.652Z,88.25
2023-01-08T16:32:03.163Z,88.20
2023-01-08T16:37:16.843Z,90.39
2023-01-08T16:42:25.693Z,88.13
2023-01-08T16:44:52.865Z,88.63
2023-01-08T16:47:21.186Z,88.75
2023-01-08T16:52:36.686Z,89.49
2023-01-08T16:57:44.861Z,88.54
2023-01-08T17:05:41.036Z,88.01
2023-01-08T17:08:08.528Z,87.43
2023-01-08T17:18:47.773Z,86.88
2023-01-08T17:24:00.983Z,87.36
2023-01-08T17:32:02.391Z,87.60
2023-01-08T17:34:30.646Z,87.87
2023-01-08T17:37:00.097Z,87.23
2023-01-08T17:45:14.209Z,86.51
2023-01-08T17:47:52.522Z,87.18
2023-01-08T17:53:02.475Z,86.17
2023-01-08T17:55:32.689Z,86.03
2023-01-08T18:00:42.047Z,86.03
2023-01-08T18:03:14.851Z,86.14
2023-01-08T18:05:42.913Z,85.82
2023-01-08T18:08:10.995Z,86.84
2023-01-08T18:18:45.568Z,86.14
2023-01-08T18:23:54.695Z,86.18
2023-01-08T18:26:23.477Z,85.37
2023-01-08T18:28:51.787Z,86.06
2023-01-08T18:31:18.949Z,86.08
2023-01-08T18:33:46.070Z,85.31
2023-01-08T18:36:13.549Z,85.36
2023-01-08T18:38:41.506Z,86.69
2023-01-08T18:41:09.657Z,86.82
2023-01-08T18:43:36.772Z,85.92
2023-01-08T18:46:05.749Z,86.37
2023-01-08T18:48:33.705Z,87.23
2023-01-08T18:51:08.291Z,86.49
2023-01-08T18:53:44.260Z,87.28
2023-01-08T18:56:14.081Z,86.88
2023-01-08T18:58:41.255Z,85.82
2023-01-08T19:01:08.398Z,85.84
2023-01-08T19:03:35.576Z,86.16
2023-01-08T19:06:02.686Z,86.20
2023-01-08T19:08:29.849Z,86.75
2023-01-08T19:10:56.900Z,86.68
2023-01-08T19:13:24.242Z,85.97
2023-01-08T19:15:51.254Z,86.22
2023-01-08T19:18:18.531Z,86.50
2023-01-08T19:20:46.442Z,86.31
2023-01-08T19:23:15.131Z,85.90
2023-01-08T19:25:42.508Z,85.55
2023-01-08T19:28:09.780Z,85.26
2023-01-08T19:30:37.874Z,84.53
2023-01-08T19:33:05.079Z,85.83
2023-01-08T19:35:32.460Z,84.59
2023-01-08T19:37:59.564Z,85.97
2023-01-08T19:40:26.515Z,84.68
2023-01-08T19:43:11.976Z,84.18
2023-01-08T19:45:39.217Z,84.88
2023-01-08T19:48:06.431Z,84.34
2023-01-08T19:50:34.377Z,83.85
2023-01-08T19:53:01.673Z,83.88
2023-01-08T19:55:28.797Z,83.46
2023-01-08T19:57:55.955Z,82.68
2023-01-08T20:00:23.147Z,83.61
2023-01-08T20:02:51.679Z,82.47
2023-01-08T20:05:20.189Z,83.61
2023-01-08T20:07:47.491Z,83.49
2023-01-08T20:10:14.420Z,83.79
2023-01-08T20:12:43.862Z,84.12
2023-01-08T20:15:10.915Z,83.75
2023-01-08T20:17:40.534Z,85.14
2023-01-08T20:20:08.261Z,83.67
2023-01-08T20:22:35.248Z,84.20
2023-01-08T20:25:02.325Z,84.69
2023-01-08T20:27:29.915Z,85.33
2023-01-08T20:29:57.074Z,85.36
2023-01-08T20:32:24.127Z,86.43
2023-01-08T20:34:51.082Z,86.49
2023-01-08T20:37:18.029Z,86.79
2023-01-08T20:39:47.581Z,85.80
2023-01-08T20:42:21.926Z,85.92
2023-01-08T20:44:54.576Z,87.12
2023-01-08T20:47:21.489Z,86.78
2023-01-08T20:49:48.622Z,87.27
2023-01-08T20:52:16.648Z,86.59
2023-01-08T20:54:43.559Z,87.24
2023-01-08T20:57:10.622Z,86.65
2023-01-08T20:59:37.733Z,86.96
2023-01-08T21:02:05.228Z,86.42
2023-01-08T21:04:32.311Z,86.54
2023-01-08T21:06:59.332Z,85.59
2023-01-08T21:09:26.357Z,86.16
2023-01-08T21:11:53.374Z,86.63
2023-01-08T21:14:20.528Z,86.69
2023-01-08T21:16:47.819Z,86.14
2023-01-08T21:19:15.605Z,86.45
2023-01-08T21:21:43.035Z,85.32
2023-01-08T21:24:11.600Z,85.60
2023-01-08T21:26:39.292Z,84.30
2023-01-08T21:29:07.206Z,84.51
2023-01-08T21:31:35.814Z,86.07
2023-01-08T21:34:03.597Z,86.02
2023-01-08T21:36:31.847Z,85.56
2023-01-08T21:38:59.488Z,85.81
2023-01-08T21:41:45.592Z,86.49
2023-01-08T21:44:33.161Z,85.99
2023-01-08T21:47:00.820Z,85.17
2023-01-08T21:49:28.436Z,86.01
2023-01-08T21:52:14.186Z,85.94
2023-01-08T21:54:41.336Z,85.18
2023-01-08T21:57:09.668Z,85.48
2023-01-08T21:59:37.373Z,85.00
2023-01-08T22:02:04.818Z,85.00
2023-01-08T22:04:31.818Z,84.73
2023-01-08T22:06:59.231Z,84.85
2023-01-08T22:09:26.256Z,84.48
2023-01-08T22:11:54.687Z,85.05
2023-01-08T22:14:21.734Z,84.90
2023-01-08T22:16:48.738Z,84.84
2023-01-08T22:19:15.896Z,85.63
2023-01-08T22:21:42.833Z,85.33
2023-01-08T22:24:09.811Z,84.98
2023-01-08T22:26:36.835Z,85.96
2023-01-08T22:29:04.624Z,85.17
2023-01-08T22:31:32.066Z,84.26
2023-01-08T22:33:59.323Z,84.42
2023-01-08T22:36:26.654Z,85.40
2023-01-08T22:38:53.766Z,85.30
2023-01-08T22:41:22.166Z,85.84
2023-01-08T22:43:52.736Z,85.45
2023-01-08T22:46:19.815Z,84.49
2023-01-08T22:48:46.738Z,84.53
2023-01-08T22:51:13.899Z,84.14
2023-01-08T22:53:41.051Z,84.51
2023-01-08T22:56:12.452Z,85.03
2023-01-08T22:58:40.689Z,85.01
2023-01-08T23:01:15.265Z,85.84
2023-01-08T23:03:46.127Z,84.97
2023-01-08T23:06:14.148Z,85.21
2023-01-08T23:08:42.706Z,84.86
2023-01-08T23:11:11.118Z,85.09
2023-01-08T23:13:38.296Z,85.28
2023-01-08T23:16:06.376Z,85.20
2023-01-08T23:18:33.821Z,85.12
2023-01-08T23:21:02.460Z,84.62
2023-01-08T23:23:29.561Z,85.22
2023-01-08T23:25:56.530Z,85.36
2023-01-08T23:28:25.738Z,86.33
2023-01-08T23:30:52.907Z,86.20
2023-01-08T23:33:19.907Z,85.86
2023-01-08T23:35:48.755Z,86.28
2023-01-08T23:38:15.683Z,86.48
2023-01-08T23:40:43.491Z,86.44
2023-01-08T23:43:11.131Z,85.30
2023-01-08T23:45:38.949Z,85.93
2023-01-08T23:48:06.257Z,85.69
2023-01-08T23:50:33.387Z,85.00
2023-01-08T23:53:00.373Z,84.96
2023-01-08T23:55:27.422Z,85.07
2023-01-08T23:57:54.419Z,84.58
